Alpena, MI

9:02 AM EST on January 29, 2015 (GMT -0500)
Alpena County Regional | Change Station
CLOSE
Current Station
Airport
Location: Alpena,
Elevation: 689 ft
Nearby Weather Stations
Active Advisory: Winter Weather Advisory

Elev 689 ft 45.07 °N, 83.56 °W | Updated 8 minutes ago

Heavy Snow
Heavy Snow Freezing Fog
23 °F
Feels Like 16 °F
N
6
Wind Variable Wind from South

Today
High -- | Low -- °F
--% Chance of Precip.
Yesterday
High -- | Low -- °F
Precip. -- in
7:57 AM 5:37 PM
Waxing Gibbous, 74% visible
Pressure 29.82 in
Visibility 0.2 miles
Clouds
Windchill 16 °F
Dew Point 21 °F
Humidity 92%
Rainfall 0.27 in
Snow Depth Not available.
UV Not available.
Pollen .10 out of 12
Air Quality Not available.
Flu Activity Not available.
METAR KAPN 291354Z AUTO 18005KT 1/4SM +SN FZFG VV008 M05/M06 A2978 RMK AO2 SLP097 P0009 T10501061

More Conditions Fewer Conditions

Pressure 29.82 in
Visibility 0.2 miles
Clouds
Windchill 16 °F
Dew Point 21 °F
Humidity 92%
Rainfall 0.27 in
Snow Depth Not available.
UV Not available.
Pollen .10 out of 12
Air Quality Not available.
Flu Activity Not available.
METAR KAPN 291354Z AUTO 18005KT 1/4SM +SN FZFG VV008 M05/M06 A2978 RMK AO2 SLP097 P0009 T10501061

More Conditions Fewer Conditions

Nowcast | as of 9:00 am EST on January 29, 2015

Winter Weather Advisory in effect until 1 PM EST this afternoon... At 10 am...snow. Temperature 25. Light winds. At 12 PM...snow. Temperature 27. West winds 5 mph. At 2 PM...cloudy. Chance of snow. Temperature 29. Northwest winds 8 mph. At 4 PM...cloudy. Chance of snow. Temperature 29. Northwest winds 13 mph.

×

10-Day Weather Forecast

Almanac

Astronomy

Jan. 29, 2015 Rise Set
Actual Time
Civil Twilight
Nautical Twilight
Astronomical Twilight
Moon
Length of Visible Light
Length of Day
Tomorrow will be .
, % of the Moon is Illuminated

Today's Extremes

State Highs State Lows

Community

WunderPhotos

Upload Photos

1,791,434 photos uploaded!

WunderBlogs® & News

Nearby

Air Quality

  Air Quality AQ Index Pollutant
Not available.

Snow Depth

Station Depth Elevation

Earthquake Activity

City Distance Mag. Time & Date
Minimum magnitude displayed is 2.5.

Coastal Water Temperatures

Place Temperature

Nearby Weather Stations